createdAt,value
2017-02-15T00:00:13.717Z,969.30
2017-02-15T00:01:12.614Z,969.28
2017-02-15T00:02:12.767Z,969.26
2017-02-15T00:03:12.467Z,969.29
2017-02-15T00:04:12.661Z,969.29
2017-02-15T00:05:12.703Z,969.27
2017-02-15T00:06:12.344Z,969.24
2017-02-15T00:07:10.975Z,969.29
2017-02-15T00:08:17.058Z,969.28
2017-02-15T00:09:12.822Z,969.27
2017-02-15T00:10:11.939Z,969.30
2017-02-15T00:11:11.950Z,969.30
2017-02-15T00:12:12.049Z,969.26
2017-02-15T00:13:12.013Z,969.31
2017-02-15T00:14:12.683Z,969.27
2017-02-15T00:15:12.678Z,969.23
2017-02-15T00:16:13.670Z,969.26
2017-02-15T00:17:15.569Z,969.23
2017-02-15T00:18:14.294Z,969.23
2017-02-15T00:19:12.782Z,969.25
2017-02-15T00:20:14.671Z,969.28
2017-02-15T00:21:13.795Z,969.24
2017-02-15T00:22:11.818Z,969.26
2017-02-15T00:23:11.863Z,969.22
2017-02-15T00:24:11.965Z,969.22
2017-02-15T00:25:11.757Z,969.23
2017-02-15T00:26:12.417Z,969.24
2017-02-15T00:27:12.605Z,969.23
2017-02-15T00:28:13.523Z,969.25
2017-02-15T00:29:14.013Z,969.26
2017-02-15T00:30:12.235Z,969.22
2017-02-15T00:31:12.646Z,969.24
2017-02-15T00:32:13.524Z,969.25
2017-02-15T00:33:14.024Z,969.25
2017-02-15T00:34:12.662Z,969.24
2017-02-15T00:35:14.257Z,969.24
2017-02-15T00:36:12.677Z,969.24
2017-02-15T00:37:15.584Z,969.26
2017-02-15T00:38:13.618Z,969.27
2017-02-15T00:39:14.522Z,969.27
2017-02-15T00:40:13.841Z,969.33
2017-02-15T00:41:11.979Z,969.27
2017-02-15T00:42:12.129Z,969.30
2017-02-15T00:43:12.965Z,969.32
2017-02-15T00:44:12.812Z,969.32
2017-02-15T00:45:11.790Z,969.30
2017-02-15T00:46:11.856Z,969.33
2017-02-15T00:47:13.521Z,969.34
2017-02-15T00:48:12.673Z,969.37
2017-02-15T00:49:12.905Z,969.37
2017-02-15T00:50:12.436Z,969.38
2017-02-15T00:51:13.435Z,969.38
2017-02-15T00:52:12.666Z,969.39
2017-02-15T00:53:12.798Z,969.39
2017-02-15T00:54:12.560Z,969.40
2017-02-15T00:55:13.553Z,969.34
2017-02-15T00:56:12.634Z,969.35
2017-02-15T00:57:12.729Z,969.36
2017-02-15T00:58:12.868Z,969.38
2017-02-15T00:59:10.205Z,969.36
2017-02-15T01:00:15.180Z,969.36
2017-02-15T01:01:14.655Z,969.37
2017-02-15T01:02:12.836Z,969.36
2017-02-15T01:03:09.538Z,969.45
2017-02-15T01:04:14.554Z,969.44
2017-02-15T01:05:13.485Z,969.47
2017-02-15T01:06:15.376Z,969.42
2017-02-15T01:07:11.128Z,969.44
2017-02-15T01:08:13.317Z,969.48
2017-02-15T01:09:13.732Z,969.43
2017-02-15T01:10:11.694Z,969.47
2017-02-15T01:11:12.888Z,969.44
2017-02-15T01:12:10.756Z,969.47
2017-02-15T01:13:16.259Z,969.48
2017-02-15T01:14:13.300Z,969.42
2017-02-15T01:15:12.448Z,969.43
2017-02-15T01:16:13.182Z,969.47
2017-02-15T01:17:14.972Z,969.51
2017-02-15T01:18:12.014Z,969.53
2017-02-15T01:19:13.939Z,969.49
2017-02-15T01:20:11.302Z,969.51
2017-02-15T01:21:13.424Z,969.52
2017-02-15T01:22:13.392Z,969.51
2017-02-15T01:23:20.574Z,969.47
2017-02-15T01:24:15.031Z,969.49
2017-02-15T01:25:14.895Z,969.49
2017-02-15T01:26:12.117Z,969.51
2017-02-15T01:27:13.389Z,969.53
2017-02-15T01:28:11.373Z,969.44
2017-02-15T01:29:13.149Z,969.51
2017-02-15T01:30:12.724Z,969.45
2017-02-15T01:31:14.782Z,969.50
2017-02-15T01:32:13.596Z,969.46
2017-02-15T01:33:13.165Z,969.42
2017-02-15T01:34:13.044Z,969.43
2017-02-15T01:35:13.563Z,969.48
2017-02-15T01:36:14.223Z,969.43
2017-02-15T01:37:12.904Z,969.44
2017-02-15T01:38:13.280Z,969.44
2017-02-15T01:39:13.080Z,969.46
2017-02-15T01:40:11.157Z,969.47
2017-02-15T01:41:12.984Z,969.45
2017-02-15T01:42:12.693Z,969.49
2017-02-15T01:43:14.555Z,969.53
2017-02-15T01:44:13.476Z,969.54
2017-02-15T01:45:10.965Z,969.54
2017-02-15T01:46:12.766Z,969.56
2017-02-15T01:47:13.790Z,969.51
2017-02-15T01:48:11.705Z,969.49
2017-02-15T01:49:12.943Z,969.51
2017-02-15T01:50:12.620Z,969.49
2017-02-15T01:51:13.196Z,969.51
2017-02-15T01:52:12.676Z,969.48
2017-02-15T01:53:14.528Z,969.49
2017-02-15T01:54:12.665Z,969.53
2017-02-15T01:55:13.518Z,969.50
2017-02-15T01:56:12.629Z,969.49
2017-02-15T01:57:16.076Z,969.50
2017-02-15T01:58:13.986Z,969.52
2017-02-15T01:59:12.886Z,969.49
2017-02-15T02:00:12.634Z,969.48
2017-02-15T02:01:12.676Z,969.47
2017-02-15T02:02:12.707Z,969.50
2017-02-15T02:03:13.427Z,969.50
2017-02-15T02:04:13.446Z,969.46
2017-02-15T02:05:12.825Z,969.50
2017-02-15T02:06:11.886Z,969.52
2017-02-15T02:07:12.134Z,969.49
2017-02-15T02:08:12.865Z,969.50
2017-02-15T02:09:12.765Z,969.50
2017-02-15T02:10:12.417Z,969.47
2017-02-15T02:11:13.340Z,969.49
2017-02-15T02:12:13.206Z,969.52
2017-02-15T02:13:11.034Z,969.49
2017-02-15T02:14:12.284Z,969.47
2017-02-15T02:15:13.602Z,969.44
2017-02-15T02:16:13.731Z,969.47
2017-02-15T02:17:14.189Z,969.50
2017-02-15T02:18:12.894Z,969.50
2017-02-15T02:19:12.473Z,969.50
2017-02-15T02:20:13.025Z,969.49
2017-02-15T02:21:12.254Z,969.49
2017-02-15T02:22:13.698Z,969.49
2017-02-15T02:23:13.813Z,969.50
2017-02-15T02:24:14.124Z,969.46
2017-02-15T02:25:12.300Z,969.48
2017-02-15T02:26:13.422Z,969.48
2017-02-15T02:27:13.152Z,969.47
2017-02-15T02:28:13.513Z,969.50
2017-02-15T02:29:13.220Z,969.47
2017-02-15T02:30:13.927Z,969.51
2017-02-15T02:31:12.724Z,969.47
2017-02-15T02:32:12.271Z,969.49
2017-02-15T02:33:12.798Z,969.50
2017-02-15T02:34:11.746Z,969.50
2017-02-15T02:35:12.904Z,969.50
2017-02-15T02:36:12.734Z,969.49
2017-02-15T02:37:12.700Z,969.51
2017-02-15T02:38:13.396Z,969.54
2017-02-15T02:39:13.496Z,969.56
2017-02-15T02:40:13.699Z,969.55
2017-02-15T02:41:12.870Z,969.53
2017-02-15T02:42:12.768Z,969.54
2017-02-15T02:43:11.750Z,969.57
2017-02-15T02:44:11.764Z,969.60
2017-02-15T02:45:12.462Z,969.62
2017-02-15T02:46:13.270Z,969.60
2017-02-15T02:47:12.422Z,969.57
2017-02-15T02:48:15.002Z,969.61
2017-02-15T02:49:12.859Z,969.61
2017-02-15T02:50:12.784Z,969.63
2017-02-15T02:51:13.415Z,969.65
2017-02-15T02:52:14.881Z,969.65
2017-02-15T02:53:12.120Z,969.67
2017-02-15T02:54:12.573Z,969.61
2017-02-15T02:55:13.388Z,969.66
2017-02-15T02:56:13.132Z,969.65
2017-02-15T02:57:12.252Z,969.65
2017-02-15T02:58:13.440Z,969.70
2017-02-15T02:59:13.473Z,969.70
2017-02-15T03:00:14.048Z,969.68
2017-02-15T03:01:12.894Z,969.69
2017-02-15T03:02:12.883Z,969.70
2017-02-15T03:03:12.579Z,969.74
2017-02-15T03:04:16.112Z,969.73
2017-02-15T03:05:12.182Z,969.75
2017-02-15T03:06:12.934Z,969.75
2017-02-15T03:07:12.401Z,969.74
2017-02-15T03:08:14.284Z,969.74
2017-02-15T03:09:14.149Z,969.75
2017-02-15T03:10:12.898Z,969.77
2017-02-15T03:11:12.540Z,969.78
2017-02-15T03:12:13.895Z,969.77
2017-02-15T03:13:12.620Z,969.80
2017-02-15T03:14:13.084Z,969.77
2017-02-15T03:15:10.301Z,969.80
2017-02-15T03:16:12.613Z,969.79
2017-02-15T03:17:12.882Z,969.77
2017-02-15T03:18:11.967Z,969.74
2017-02-15T03:19:13.491Z,969.74
2017-02-15T03:20:12.634Z,969.78
2017-02-15T03:21:12.791Z,969.80
2017-02-15T03:22:12.039Z,969.78
2017-02-15T03:23:12.089Z,969.77
2017-02-15T03:24:13.761Z,969.80
2017-02-15T03:25:12.539Z,969.80
2017-02-15T03:26:12.632Z,969.80
2017-02-15T03:27:13.414Z,969.79
2017-02-15T03:28:13.227Z,969.81
2017-02-15T03:29:13.090Z,969.79
2017-02-15T03:30:13.311Z,969.79
2017-02-15T03:31:14.614Z,969.81
2017-02-15T03:32:12.630Z,969.79
2017-02-15T03:33:13.107Z,969.78
2017-02-15T03:34:13.073Z,969.80
2017-02-15T03:35:12.555Z,969.83
2017-02-15T03:36:11.225Z,969.80
2017-02-15T03:37:12.968Z,969.81
2017-02-15T03:38:12.726Z,969.79
2017-02-15T03:39:09.239Z,969.84
2017-02-15T03:40:12.567Z,969.81
2017-02-15T03:41:12.780Z,969.85
2017-02-15T03:42:11.814Z,969.84
2017-02-15T03:43:12.002Z,969.87
2017-02-15T03:44:12.630Z,969.90
2017-02-15T03:45:13.417Z,969.90
2017-02-15T03:46:13.191Z,969.92
2017-02-15T03:47:12.170Z,969.93
2017-02-15T03:48:12.820Z,969.95
2017-02-15T03:49:11.951Z,969.96
2017-02-15T03:50:12.025Z,969.96
2017-02-15T03:51:12.222Z,969.98
2017-02-15T03:52:12.452Z,969.94
2017-02-15T03:53:15.033Z,969.95
2017-02-15T03:54:12.944Z,969.96
2017-02-15T03:55:12.841Z,969.90
2017-02-15T03:56:11.874Z,969.93
2017-02-15T03:57:13.629Z,969.94
2017-02-15T03:58:12.716Z,969.95
2017-02-15T03:59:13.515Z,969.92
2017-02-15T04:00:12.633Z,969.92
2017-02-15T04:01:13.252Z,969.91
2017-02-15T04:02:12.754Z,969.93
2017-02-15T04:03:11.903Z,969.93
2017-02-15T04:04:11.874Z,969.94
2017-02-15T04:05:12.710Z,969.97
2017-02-15T04:06:13.700Z,969.96
2017-02-15T04:07:14.030Z,969.96
2017-02-15T04:08:12.205Z,969.96
2017-02-15T04:09:12.256Z,970.01
2017-02-15T04:10:12.300Z,970.00
2017-02-15T04:11:12.436Z,969.96
2017-02-15T04:12:12.619Z,969.99
2017-02-15T04:13:13.543Z,969.99
2017-02-15T04:14:13.400Z,969.98
2017-02-15T04:15:12.575Z,969.96
2017-02-15T04:16:14.219Z,970.02
2017-02-15T04:17:15.836Z,970.00
2017-02-15T04:18:13.093Z,970.02
2017-02-15T04:19:12.348Z,970.03
2017-02-15T04:20:10.559Z,970.06
2017-02-15T04:21:12.680Z,970.06
2017-02-15T04:22:13.305Z,970.04
2017-02-15T04:23:12.297Z,970.07
2017-02-15T04:24:12.890Z,970.00
2017-02-15T04:25:12.616Z,970.01
2017-02-15T04:26:13.634Z,970.07
2017-02-15T04:27:12.644Z,970.03
2017-02-15T04:28:13.309Z,970.04
2017-02-15T04:29:13.300Z,970.08
2017-02-15T04:30:12.982Z,970.06
2017-02-15T04:31:11.015Z,970.11
2017-02-15T04:32:12.230Z,970.10
2017-02-15T04:33:14.614Z,970.12
2017-02-15T04:34:13.315Z,970.12
2017-02-15T04:35:12.519Z,970.15
2017-02-15T04:36:13.615Z,970.12
2017-02-15T04:37:12.803Z,970.14
2017-02-15T04:38:13.112Z,970.12
2017-02-15T04:39:12.633Z,970.10
2017-02-15T04:40:14.366Z,970.14
2017-02-15T04:41:12.462Z,970.14
2017-02-15T04:42:13.095Z,970.13
2017-02-15T04:43:12.256Z,970.16
2017-02-15T04:44:12.357Z,970.13
2017-02-15T04:45:12.924Z,970.12
2017-02-15T04:46:12.064Z,970.08
2017-02-15T04:47:13.267Z,970.12
2017-02-15T04:48:11.112Z,970.10
2017-02-15T04:49:11.861Z,970.12
2017-02-15T04:50:12.725Z,970.13
2017-02-15T04:51:12.860Z,970.14
2017-02-15T04:52:12.463Z,970.09
2017-02-15T04:53:12.563Z,970.13
2017-02-15T04:54:13.334Z,970.10
2017-02-15T04:55:12.926Z,970.13
2017-02-15T04:56:12.085Z,970.18
2017-02-15T04:57:12.266Z,970.18
2017-02-15T04:58:12.595Z,970.17
2017-02-15T04:59:13.301Z,970.19
2017-02-15T05:00:13.987Z,970.18
2017-02-15T05:01:13.077Z,970.24
2017-02-15T05:02:12.953Z,970.25
2017-02-15T05:03:12.915Z,970.25
2017-02-15T05:04:12.009Z,970.27
2017-02-15T05:05:10.908Z,970.24
2017-02-15T05:06:12.506Z,970.24
2017-02-15T05:07:13.280Z,970.23
2017-02-15T05:08:12.849Z,970.29
2017-02-15T05:09:12.503Z,970.26
2017-02-15T05:10:12.472Z,970.24
2017-02-15T05:11:13.180Z,970.23
2017-02-15T05:12:13.826Z,970.27
2017-02-15T05:13:12.435Z,970.24
2017-02-15T05:14:13.295Z,970.26
2017-02-15T05:15:12.366Z,970.25
2017-02-15T05:16:12.481Z,970.31
2017-02-15T05:17:11.309Z,970.22
2017-02-15T05:18:12.879Z,970.28
2017-02-15T05:19:12.746Z,970.29
2017-02-15T05:20:12.425Z,970.27
2017-02-15T05:21:13.101Z,970.27
2017-02-15T05:22:12.807Z,970.29
2017-02-15T05:23:11.896Z,970.25
2017-02-15T05:24:12.662Z,970.28
2017-02-15T05:25:16.602Z,970.24
2017-02-15T05:26:13.638Z,970.27
2017-02-15T05:27:13.480Z,970.25
2017-02-15T05:28:11.296Z,970.26
2017-02-15T05:29:13.034Z,970.28
2017-02-15T05:30:12.651Z,970.32
2017-02-15T05:31:12.866Z,970.30
2017-02-15T05:32:13.301Z,970.34
2017-02-15T05:33:12.614Z,970.32
2017-02-15T05:34:13.428Z,970.31
2017-02-15T05:35:12.621Z,970.34
2017-02-15T05:36:14.872Z,970.34
2017-02-15T05:37:13.625Z,970.35
2017-02-15T05:38:12.632Z,970.38
2017-02-15T05:39:13.646Z,970.38
2017-02-15T05:40:12.347Z,970.38
2017-02-15T05:41:12.456Z,970.40
2017-02-15T05:42:13.729Z,970.39
2017-02-15T05:43:13.690Z,970.39
2017-02-15T05:44:13.416Z,970.41
2017-02-15T05:45:12.533Z,970.47
2017-02-15T05:46:13.399Z,970.43
2017-02-15T05:47:13.194Z,970.51
2017-02-15T05:48:12.714Z,970.45
2017-02-15T05:49:11.608Z,970.47
2017-02-15T05:50:12.841Z,970.48
2017-02-15T05:51:13.217Z,970.46
2017-02-15T05:52:13.175Z,970.44
2017-02-15T05:53:12.997Z,970.46
2017-02-15T05:54:12.893Z,970.44
2017-02-15T05:55:09.086Z,970.45
2017-02-15T05:56:12.355Z,970.45
2017-02-15T05:57:14.051Z,970.53
2017-02-15T05:58:13.594Z,970.54
2017-02-15T05:59:14.479Z,970.52
2017-02-15T06:00:12.495Z,970.49
2017-02-15T06:01:13.239Z,970.50
2017-02-15T06:02:12.463Z,970.51
2017-02-15T06:03:13.268Z,970.52
2017-02-15T06:04:12.455Z,970.51
2017-02-15T06:05:11.879Z,970.51
2017-02-15T06:06:12.877Z,970.53
2017-02-15T06:07:13.840Z,970.52
2017-02-15T06:08:11.794Z,970.56
2017-02-15T06:09:12.672Z,970.53
2017-02-15T06:10:13.231Z,970.53
2017-02-15T06:11:12.288Z,970.55
2017-02-15T06:12:12.465Z,970.56
2017-02-15T06:13:14.283Z,970.63
2017-02-15T06:14:12.419Z,970.63
2017-02-15T06:15:13.333Z,970.66
2017-02-15T06:16:13.235Z,970.66
2017-02-15T06:17:13.105Z,970.66
2017-02-15T06:18:12.378Z,970.70
2017-02-15T06:19:13.173Z,970.69
2017-02-15T06:20:12.920Z,970.69
2017-02-15T06:21:12.038Z,970.65
2017-02-15T06:22:12.755Z,970.68
2017-02-15T06:23:11.278Z,970.65
2017-02-15T06:24:12.718Z,970.64
2017-02-15T06:25:13.744Z,970.65
2017-02-15T06:26:12.564Z,970.67
2017-02-15T06:27:14.676Z,970.69
2017-02-15T06:28:11.785Z,970.70
2017-02-15T06:29:12.413Z,970.76
2017-02-15T06:30:12.981Z,970.72
2017-02-15T06:31:12.055Z,970.76
2017-02-15T06:32:12.454Z,970.74
2017-02-15T06:33:13.094Z,970.74
2017-02-15T06:34:12.333Z,970.74
2017-02-15T06:35:13.896Z,970.78
2017-02-15T06:36:12.695Z,970.75
2017-02-15T06:37:14.903Z,970.75
2017-02-15T06:38:12.864Z,970.83
2017-02-15T06:39:14.824Z,970.79
2017-02-15T06:40:11.834Z,970.83
2017-02-15T06:41:12.044Z,970.82
2017-02-15T06:42:12.452Z,970.78
2017-02-15T06:43:11.211Z,970.85
2017-02-15T06:44:12.632Z,970.83
2017-02-15T06:45:11.793Z,970.83
2017-02-15T06:46:13.466Z,970.82
2017-02-15T06:47:12.817Z,970.85
2017-02-15T06:48:12.895Z,970.85
2017-02-15T06:49:13.057Z,970.83
2017-02-15T06:50:12.631Z,970.83
2017-02-15T06:51:12.975Z,970.84
2017-02-15T06:52:11.878Z,970.83
2017-02-15T06:53:12.587Z,970.84
2017-02-15T06:54:13.419Z,970.83
2017-02-15T06:55:12.481Z,970.83
2017-02-15T06:56:12.787Z,970.82
2017-02-15T06:57:12.542Z,970.85
2017-02-15T06:58:13.304Z,970.88
2017-02-15T06:59:12.484Z,970.88
2017-02-15T07:00:13.167Z,970.90
2017-02-15T07:01:12.318Z,970.93
2017-02-15T07:02:13.036Z,970.95
2017-02-15T07:03:12.113Z,970.98
2017-02-15T07:04:14.726Z,970.97
2017-02-15T07:05:12.770Z,970.96
2017-02-15T07:06:11.933Z,970.99
2017-02-15T07:07:10.285Z,971.02
2017-02-15T07:08:13.833Z,970.99
2017-02-15T07:09:13.796Z,971.01
2017-02-15T07:10:11.761Z,970.98
2017-02-15T07:11:12.927Z,970.99
2017-02-15T07:12:12.782Z,971.03
2017-02-15T07:13:12.080Z,971.06
2017-02-15T07:14:12.078Z,971.06
2017-02-15T07:15:12.684Z,971.07
2017-02-15T07:16:12.689Z,971.09
2017-02-15T07:17:13.277Z,971.08
2017-02-15T07:18:12.353Z,971.12
2017-02-15T07:19:13.973Z,971.14
2017-02-15T07:20:12.656Z,971.11
2017-02-15T07:21:13.331Z,971.13
2017-02-15T07:22:15.035Z,971.12
2017-02-15T07:23:10.877Z,971.18
2017-02-15T07:24:12.951Z,971.14
2017-02-15T07:25:12.085Z,971.16
2017-02-15T07:26:12.156Z,971.18
2017-02-15T07:27:12.871Z,971.14
2017-02-15T07:28:12.600Z,971.16
2017-02-15T07:29:13.695Z,971.16
2017-02-15T07:30:15.311Z,971.19
2017-02-15T07:31:12.423Z,971.19
2017-02-15T07:32:12.485Z,971.20
2017-02-15T07:33:13.467Z,971.21
2017-02-15T07:34:09.850Z,971.17
2017-02-15T07:35:14.183Z,971.23
2017-02-15T07:36:12.467Z,971.22
2017-02-15T07:37:12.553Z,971.20
2017-02-15T07:38:11.140Z,971.23
2017-02-15T07:39:13.003Z,971.21
2017-02-15T07:40:11.624Z,971.21
2017-02-15T07:41:12.442Z,971.24
2017-02-15T07:42:12.922Z,971.24
2017-02-15T07:43:12.295Z,971.26
2017-02-15T07:44:12.427Z,971.20
2017-02-15T07:45:14.051Z,971.30
2017-02-15T07:46:10.760Z,971.27
2017-02-15T07:47:12.585Z,971.30
2017-02-15T07:48:13.509Z,971.28
2017-02-15T07:49:13.440Z,971.27
2017-02-15T07:50:13.853Z,971.28
2017-02-15T07:51:12.452Z,971.25
2017-02-15T07:52:12.678Z,971.31
2017-02-15T07:53:13.518Z,971.30
2017-02-15T07:54:14.012Z,971.28
2017-02-15T07:55:12.164Z,971.31
2017-02-15T07:56:14.212Z,971.30
2017-02-15T07:57:12.222Z,971.29
2017-02-15T07:58:14.414Z,971.30
2017-02-15T07:59:13.272Z,971.30
2017-02-15T08:00:10.453Z,971.31
2017-02-15T08:01:12.665Z,971.30
2017-02-15T08:02:13.273Z,971.32
2017-02-15T08:03:13.070Z,971.27
2017-02-15T08:04:12.795Z,971.26
2017-02-15T08:05:12.654Z,971.27
2017-02-15T08:06:13.434Z,971.27
2017-02-15T08:07:12.782Z,971.29
2017-02-15T08:08:12.269Z,971.32
2017-02-15T08:09:12.279Z,971.29
2017-02-15T08:10:12.308Z,971.33
2017-02-15T08:11:13.045Z,971.25
2017-02-15T08:12:12.353Z,971.29
2017-02-15T08:13:12.474Z,971.32
2017-02-15T08:14:13.118Z,971.33
2017-02-15T08:15:12.357Z,971.36
2017-02-15T08:16:13.424Z,971.34
2017-02-15T08:17:12.902Z,971.32
2017-02-15T08:18:12.893Z,971.37
2017-02-15T08:19:11.767Z,971.38
2017-02-15T08:20:12.044Z,971.37
2017-02-15T08:21:10.950Z,971.38
2017-02-15T08:22:12.733Z,971.38
2017-02-15T08:23:15.459Z,971.34
2017-02-15T08:24:13.917Z,971.31
2017-02-15T08:25:13.817Z,971.32
2017-02-15T08:26:12.084Z,971.34
2017-02-15T08:27:12.891Z,971.41
2017-02-15T08:28:13.237Z,971.36
2017-02-15T08:29:13.166Z,971.34
2017-02-15T08:30:12.864Z,971.36
2017-02-15T08:31:12.466Z,971.33
2017-02-15T08:32:12.431Z,971.30
2017-02-15T08:33:13.247Z,971.30
2017-02-15T08:34:12.931Z,971.27
2017-02-15T08:35:11.888Z,971.20
2017-02-15T08:36:14.223Z,971.20
2017-02-15T08:37:13.462Z,971.19
2017-02-15T08:38:13.241Z,971.26
2017-02-15T08:39:12.383Z,971.21
2017-02-15T08:40:13.353Z,971.20
2017-02-15T08:41:12.932Z,971.21
2017-02-15T08:42:10.687Z,971.21
2017-02-15T08:43:14.321Z,971.20
2017-02-15T08:44:14.273Z,971.22
2017-02-15T08:45:14.011Z,971.20
2017-02-15T08:46:12.203Z,971.22
2017-02-15T08:47:12.291Z,971.21
2017-02-15T08:48:15.198Z,971.21
2017-02-15T08:49:12.280Z,971.15
2017-02-15T08:50:14.092Z,971.20
2017-02-15T08:51:12.279Z,971.22
2017-02-15T08:52:13.362Z,971.18
2017-02-15T08:53:12.443Z,971.18
2017-02-15T08:54:12.968Z,971.20
2017-02-15T08:55:12.886Z,971.16
2017-02-15T08:56:10.944Z,971.20
2017-02-15T08:57:13.993Z,971.17
2017-02-15T08:58:13.597Z,971.15
2017-02-15T08:59:12.704Z,971.16
2017-02-15T09:00:09.540Z,971.15
2017-02-15T09:01:14.281Z,971.16
2017-02-15T09:02:12.458Z,971.14
2017-02-15T09:03:12.694Z,971.12
2017-02-15T09:04:13.841Z,971.13
2017-02-15T09:05:12.021Z,971.13
2017-02-15T09:06:12.601Z,971.16
2017-02-15T09:07:13.421Z,971.12
2017-02-15T09:08:13.082Z,971.15
2017-02-15T09:09:12.090Z,971.15
2017-02-15T09:10:18.302Z,971.10
2017-02-15T09:11:12.371Z,971.12
2017-02-15T09:12:12.962Z,971.10
2017-02-15T09:13:12.494Z,971.11
2017-02-15T09:14:13.172Z,971.09
2017-02-15T09:15:20.728Z,971.07
2017-02-15T09:16:12.920Z,971.12
2017-02-15T09:17:12.073Z,971.12
2017-02-15T09:18:12.889Z,971.09
2017-02-15T09:19:11.842Z,971.05
2017-02-15T09:20:12.019Z,971.06
2017-02-15T09:21:13.799Z,971.05
2017-02-15T09:22:13.677Z,971.06
2017-02-15T09:23:14.380Z,971.01
2017-02-15T09:24:14.116Z,971.07
2017-02-15T09:25:12.200Z,971.05
2017-02-15T09:26:13.350Z,971.05
2017-02-15T09:27:11.138Z,971.03
2017-02-15T09:28:12.576Z,971.06
2017-02-15T09:29:13.247Z,971.03
2017-02-15T09:30:13.111Z,971.06
2017-02-15T09:31:12.734Z,971.05
2017-02-15T09:32:12.380Z,971.04
2017-02-15T09:33:13.240Z,971.05
2017-02-15T09:34:12.903Z,971.00
2017-02-15T09:35:10.224Z,971.08
2017-02-15T09:36:13.009Z,971.07
2017-02-15T09:37:14.109Z,971.07
2017-02-15T09:38:12.261Z,971.08
2017-02-15T09:39:13.729Z,971.08
2017-02-15T09:40:12.880Z,971.09
2017-02-15T09:41:12.982Z,971.13
2017-02-15T09:42:12.087Z,971.13
2017-02-15T09:43:12.670Z,971.10
2017-02-15T09:44:13.371Z,971.10
2017-02-15T09:45:12.905Z,971.12
2017-02-15T09:46:09.457Z,971.12
2017-02-15T09:47:20.576Z,971.10
2017-02-15T09:48:14.118Z,971.17
2017-02-15T09:49:12.282Z,971.13
2017-02-15T09:50:12.864Z,971.11
2017-02-15T09:51:11.833Z,971.14
2017-02-15T09:52:12.958Z,971.11
2017-02-15T09:53:10.847Z,971.12
2017-02-15T09:54:11.896Z,971.11
2017-02-15T09:55:12.112Z,971.13
2017-02-15T09:56:12.236Z,971.17
2017-02-15T09:57:12.453Z,971.16
2017-02-15T09:58:13.271Z,971.12
2017-02-15T09:59:13.295Z,971.17
2017-02-15T10:00:13.162Z,971.16
2017-02-15T10:01:13.889Z,971.16
2017-02-15T10:02:10.385Z,971.17
2017-02-15T10:03:13.321Z,971.15
2017-02-15T10:04:09.449Z,971.19
2017-02-15T10:05:13.352Z,971.20
2017-02-15T10:06:12.456Z,971.18
2017-02-15T10:07:13.300Z,971.20
2017-02-15T10:08:12.479Z,971.20
2017-02-15T10:09:13.483Z,971.21
2017-02-15T10:10:13.323Z,971.16
2017-02-15T10:11:13.503Z,971.19
2017-02-15T10:12:13.290Z,971.20
2017-02-15T10:13:13.124Z,971.16
2017-02-15T10:14:12.128Z,971.14
2017-02-15T10:15:12.269Z,971.18
2017-02-15T10:16:13.933Z,971.19
2017-02-15T10:17:12.863Z,971.21
2017-02-15T10:18:12.682Z,971.22
2017-02-15T10:19:13.481Z,971.18
2017-02-15T10:20:13.073Z,971.17
2017-02-15T10:21:12.880Z,971.15
2017-02-15T10:22:13.816Z,971.21
2017-02-15T10:23:11.931Z,971.19
2017-02-15T10:24:12.341Z,971.17
2017-02-15T10:25:12.863Z,971.20
2017-02-15T10:26:12.604Z,971.13
2017-02-15T10:27:12.666Z,971.16
2017-02-15T10:28:11.311Z,971.16
2017-02-15T10:29:14.314Z,971.15
2017-02-15T10:30:13.020Z,971.14
2017-02-15T10:31:19.674Z,971.13
2017-02-15T10:32:14.426Z,971.09
2017-02-15T10:33:12.761Z,971.11
2017-02-15T10:34:12.293Z,971.10
2017-02-15T10:35:14.047Z,971.09
2017-02-15T10:36:13.913Z,971.15
2017-02-15T10:37:12.467Z,971.06
2017-02-15T10:38:13.984Z,971.09
2017-02-15T10:39:12.661Z,971.05
2017-02-15T10:40:11.687Z,971.03
2017-02-15T10:41:19.180Z,971.03
2017-02-15T10:42:15.245Z,970.99
2017-02-15T10:43:12.454Z,970.99
2017-02-15T10:44:13.381Z,970.99
2017-02-15T10:45:14.235Z,971.00
2017-02-15T10:46:12.325Z,971.00
2017-02-15T10:47:11.116Z,970.99
2017-02-15T10:48:14.962Z,970.94
2017-02-15T10:49:12.096Z,970.96
2017-02-15T10:50:12.888Z,970.97
2017-02-15T10:51:18.991Z,970.94
2017-02-15T10:52:12.652Z,970.96
2017-02-15T10:53:12.666Z,970.97
2017-02-15T10:54:13.278Z,970.94
2017-02-15T10:55:12.811Z,970.95
2017-02-15T10:56:13.765Z,970.95
2017-02-15T10:57:21.234Z,970.95
2017-02-15T10:58:12.547Z,970.93
2017-02-15T10:59:13.243Z,970.92
2017-02-15T11:00:13.064Z,970.91
2017-02-15T11:01:12.994Z,970.91
2017-02-15T11:02:12.401Z,970.91
2017-02-15T11:03:13.347Z,970.90
2017-02-15T11:04:14.028Z,970.88
2017-02-15T11:05:19.590Z,970.85
2017-02-15T11:06:12.798Z,970.90
2017-02-15T11:07:12.723Z,970.85
2017-02-15T11:08:12.948Z,970.88
2017-02-15T11:09:12.764Z,970.82
2017-02-15T11:10:13.534Z,970.80
2017-02-15T11:11:13.175Z,970.78
2017-02-15T11:12:17.885Z,970.78
2017-02-15T11:13:12.091Z,970.79
2017-02-15T11:14:12.658Z,970.82
2017-02-15T11:15:12.684Z,970.79
2017-02-15T11:16:13.571Z,970.73
2017-02-15T11:17:13.462Z,970.75
2017-02-15T11:18:13.183Z,970.73
2017-02-15T11:19:12.897Z,970.70
2017-02-15T11:20:11.891Z,970.69
2017-02-15T11:21:12.086Z,970.71
2017-02-15T11:22:12.299Z,970.66
2017-02-15T11:23:13.183Z,970.67
2017-02-15T11:24:12.847Z,970.69
2017-02-15T11:25:11.962Z,970.72
2017-02-15T11:26:09.348Z,970.68
2017-02-15T11:27:14.370Z,970.69
2017-02-15T11:28:13.429Z,970.64
2017-02-15T11:29:12.265Z,970.64
2017-02-15T11:30:12.896Z,970.62
2017-02-15T11:31:12.587Z,970.62
2017-02-15T11:32:12.686Z,970.63
2017-02-15T11:33:10.670Z,970.60
2017-02-15T11:34:12.874Z,970.65
2017-02-15T11:35:19.011Z,970.61
2017-02-15T11:36:12.094Z,970.56
2017-02-15T11:37:11.949Z,970.59
2017-02-15T11:38:13.244Z,970.59
2017-02-15T11:39:12.580Z,970.62
2017-02-15T11:40:14.437Z,970.59
2017-02-15T11:41:11.175Z,970.60
2017-02-15T11:42:13.166Z,970.62
2017-02-15T11:43:12.924Z,970.57
2017-02-15T11:44:12.607Z,970.49
2017-02-15T11:45:12.894Z,970.54
2017-02-15T11:46:13.594Z,970.52
2017-02-15T11:47:13.547Z,970.54
2017-02-15T11:48:13.326Z,970.52
2017-02-15T11:49:12.495Z,970.48
2017-02-15T11:50:13.814Z,970.46
2017-02-15T11:51:12.465Z,970.47
2017-02-15T11:52:12.483Z,970.45
2017-02-15T11:53:11.276Z,970.46
2017-02-15T11:54:12.674Z,970.49
2017-02-15T11:55:14.519Z,970.49
2017-02-15T11:56:13.141Z,970.49
2017-02-15T11:57:11.224Z,970.45
2017-02-15T11:58:12.494Z,970.48
2017-02-15T11:59:13.175Z,970.48
2017-02-15T12:00:12.254Z,970.45
2017-02-15T12:01:10.968Z,970.43
2017-02-15T12:02:12.264Z,970.42
2017-02-15T12:03:12.297Z,970.45
2017-02-15T12:04:12.786Z,970.40
2017-02-15T12:05:12.072Z,970.41
2017-02-15T12:06:12.204Z,970.41
2017-02-15T12:07:12.342Z,970.42
2017-02-15T12:08:12.297Z,970.40
2017-02-15T12:09:13.977Z,970.43
2017-02-15T12:10:12.094Z,970.42
2017-02-15T12:11:11.078Z,970.43
2017-02-15T12:12:13.129Z,970.41
2017-02-15T12:13:13.840Z,970.41
2017-02-15T12:14:11.746Z,970.43
2017-02-15T12:15:13.598Z,970.45
2017-02-15T12:16:12.697Z,970.37
2017-02-15T12:17:12.983Z,970.40
2017-02-15T12:18:10.890Z,970.41
2017-02-15T12:19:12.659Z,970.41
2017-02-15T12:20:11.510Z,970.41
2017-02-15T12:21:13.317Z,970.38
2017-02-15T12:22:12.918Z,970.29
2017-02-15T12:23:12.847Z,970.35
2017-02-15T12:24:21.879Z,970.33
2017-02-15T12:25:11.770Z,970.34
2017-02-15T12:26:14.176Z,970.33
2017-02-15T12:27:12.393Z,970.33
2017-02-15T12:28:13.904Z,970.34